Time,TemperatureF,DewpointF,PressureIn,WindDirection,WindDirectionDegrees,WindSpeedMPH,WindSpeedGustMPH,Humidity,HourlyPrecipIn,Conditions,Clouds,dailyrainin,SoftwareType,DateUTC
2013-03-29 00:03:00,31.0,23.0,30.42,NNW,339,0.0,1.0,73,0.00,,,0.00,,2013-03-29 04:03:00,
2013-03-29 00:13:00,31.0,23.0,30.42,NNW,339,0.0,1.0,73,0.00,,,0.00,,2013-03-29 04:13:00,
2013-03-29 00:23:00,32.0,24.0,30.42,NNW,339,0.0,4.0,72,0.00,,,0.00,,2013-03-29 04:23:00,
2013-03-29 00:33:00,30.0,24.0,30.42,NNW,339,0.0,0.0,78,0.00,,,0.00,,2013-03-29 04:33:00,
2013-03-29 00:43:00,30.0,24.0,30.42,NNW,339,0.0,0.0,78,0.00,,,0.00,,2013-03-29 04:43:00,
2013-03-29 00:52:00,29.0,24.0,30.41,NNW,339,0.0,1.0,81,0.00,,,0.00,,2013-03-29 04:52:00,
2013-03-29 01:03:00,29.0,24.0,30.42,NNW,339,1.0,3.0,81,0.00,,,0.00,,2013-03-29 05:03:00,
2013-03-29 01:13:00,29.0,24.0,30.42,NNW,339,1.0,3.0,81,0.00,,,0.00,,2013-03-29 05:13:00,
2013-03-29 01:23:00,28.0,24.0,30.42,NNW,339,0.0,1.0,83,0.00,,,0.00,,2013-03-29 05:23:00,
2013-03-29 01:33:00,28.0,24.0,30.42,NNW,339,0.0,0.0,84,0.00,,,0.00,,2013-03-29 05:33:00,
2013-03-29 01:43:00,28.0,24.0,30.42,NNW,339,0.0,0.0,84,0.00,,,0.00,,2013-03-29 05:43:00,
2013-03-29 01:52:00,27.0,23.0,30.42,NNW,339,0.0,0.0,85,0.00,,,0.00,,2013-03-29 05:52:00,
2013-03-29 02:03:00,27.0,23.0,30.42,NNW,339,0.0,0.0,85,0.00,,,0.00,,2013-03-29 06:03:00,
2013-03-29 02:12:00,27.0,23.0,30.42,NNW,339,0.0,0.0,85,0.00,,,0.00,,2013-03-29 06:12:00,
2013-03-29 02:23:00,27.0,23.0,30.42,NNW,339,0.0,0.0,86,0.00,,,0.00,,2013-03-29 06:23:00,
2013-03-29 02:32:00,27.0,23.0,30.42,NNW,339,0.0,1.0,85,0.00,,,0.00,,2013-03-29 06:32:00,
2013-03-29 02:42:00,27.0,23.0,30.42,NNW,339,0.0,1.0,85,0.00,,,0.00,,2013-03-29 06:42:00,
2013-03-29 02:52:00,26.0,22.0,30.42,NNW,339,0.0,0.0,86,0.00,,,0.00,,2013-03-29 06:52:00,
2013-03-29 03:03:00,25.0,22.0,30.42,NNW,339,0.0,0.0,88,0.00,,,0.00,,2013-03-29 07:03:00,
2013-03-29 03:12:00,25.0,22.0,30.42,NNW,339,0.0,0.0,88,0.00,,,0.00,,2013-03-29 07:12:00,
2013-03-29 03:22:00,26.0,23.0,30.43,NNW,339,0.0,0.0,87,0.00,,,0.00,,2013-03-29 07:22:00,
2013-03-29 03:32:00,26.0,23.0,30.42,NNW,339,0.0,2.0,88,0.00,,,0.00,,2013-03-29 07:32:00,
2013-03-29 03:42:00,26.0,23.0,30.42,NNW,339,0.0,2.0,88,0.00,,,0.00,,2013-03-29 07:42:00,
2013-03-29 03:52:00,26.0,22.0,30.43,NNW,339,0.0,3.0,86,0.00,,,0.00,,2013-03-29 07:52:00,
2013-03-29 04:02:00,27.0,23.0,30.42,NNW,339,0.0,3.0,85,0.00,,,0.00,,2013-03-29 08:02:00,
2013-03-29 04:12:00,27.0,23.0,30.42,NNW,339,0.0,3.0,85,0.00,,,0.00,,2013-03-29 08:12:00,
2013-03-29 04:22:00,27.0,23.0,30.42,NNW,339,2.0,3.0,84,0.00,,,0.00,,2013-03-29 08:22:00,
2013-03-29 04:32:00,28.0,23.0,30.42,NNW,339,0.0,3.0,82,0.00,,,0.00,,2013-03-29 08:32:00,
2013-03-29 04:42:00,28.0,23.0,30.42,NNW,339,0.0,3.0,82,0.00,,,0.00,,2013-03-29 08:42:00,
2013-03-29 04:52:00,28.0,24.0,30.42,NNW,339,3.0,4.0,83,0.00,,,0.00,,2013-03-29 08:52:00,
2013-03-29 05:02:00,28.0,23.0,30.42,NNW,339,0.0,2.0,82,0.00,,,0.00,,2013-03-29 09:02:00,
2013-03-29 05:13:00,28.0,23.0,30.42,NNW,339,0.0,2.0,82,0.00,,,0.00,,2013-03-29 09:13:00,
2013-03-29 05:22:00,27.0,22.0,30.42,NNW,339,0.0,2.0,82,0.00,,,0.00,,2013-03-29 09:22:00,
2013-03-29 05:33:00,27.0,23.0,30.42,NNW,339,1.0,3.0,85,0.00,,,0.00,,2013-03-29 09:33:00,
2013-03-29 05:43:00,27.0,23.0,30.42,NNW,339,1.0,3.0,85,0.00,,,0.00,,2013-03-29 09:43:00,
2013-03-29 05:52:00,27.0,23.0,30.42,NNW,339,2.0,3.0,84,0.00,,,0.00,,2013-03-29 09:52:00,
2013-03-29 06:03:00,27.0,23.0,30.42,NNW,339,2.0,3.0,84,0.00,,,0.00,,2013-03-29 10:03:00,
2013-03-29 06:12:00,27.0,23.0,30.42,NNW,339,2.0,3.0,84,0.00,,,0.00,,2013-03-29 10:12:00,
2013-03-29 06:23:00,26.0,22.0,30.43,NNW,339,1.0,3.0,85,0.00,,,0.00,,2013-03-29 10:23:00,
2013-03-29 06:33:00,26.0,23.0,30.43,NNW,339,2.0,4.0,87,0.00,,,0.00,,2013-03-29 10:33:00,
2013-03-29 06:42:00,26.0,23.0,30.43,NNW,339,2.0,4.0,87,0.00,,,0.00,,2013-03-29 10:42:00,
2013-03-29 06:52:00,26.0,23.0,30.43,NNW,339,0.0,3.0,88,0.00,,,0.00,,2013-03-29 10:52:00,
2013-03-29 07:04:00,26.0,23.0,30.44,NNW,339,0.0,3.0,88,0.00,,,0.00,,2013-03-29 11:04:00,
2013-03-29 07:12:00,26.0,23.0,30.44,NNW,339,0.0,3.0,88,0.00,,,0.00,,2013-03-29 11:12:00,
2013-03-29 07:23:00,27.0,23.0,30.44,NNW,339,0.0,2.0,86,0.00,,,0.00,,2013-03-29 11:23:00,
2013-03-29 07:33:00,26.0,23.0,30.45,NNW,339,0.0,2.0,87,0.00,,,0.00,,2013-03-29 11:33:00,
2013-03-29 07:42:00,26.0,23.0,30.45,NNW,339,0.0,2.0,87,0.00,,,0.00,,2013-03-29 11:42:00,
2013-03-29 07:52:00,27.0,24.0,30.45,NNW,339,1.0,2.0,87,0.00,,,0.00,,2013-03-29 11:52:00,
2013-03-29 08:03:00,28.0,24.0,30.46,NNW,339,2.0,4.0,85,0.00,,,0.00,,2013-03-29 12:03:00,
2013-03-29 08:13:00,28.0,24.0,30.46,NNW,339,2.0,4.0,85,0.00,,,0.00,,2013-03-29 12:13:00,
2013-03-29 08:22:00,28.0,24.0,30.46,NNW,339,0.0,2.0,86,0.00,,,0.00,,2013-03-29 12:22:00,
2013-03-29 08:32:00,29.0,25.0,30.46,NNW,339,0.0,2.0,84,0.00,,,0.00,,2013-03-29 12:32:00,
2013-03-29 08:42:00,29.0,25.0,30.46,NNW,339,0.0,2.0,84,0.00,,,0.00,,2013-03-29 12:42:00,
2013-03-29 08:52:00,30.0,25.0,30.46,NNW,339,0.0,2.0,81,0.00,,,0.00,,2013-03-29 12:52:00,
2013-03-29 09:03:00,31.0,26.0,30.46,NNW,339,0.0,3.0,81,0.00,,,0.00,,2013-03-29 13:03:00,
2013-03-29 09:13:00,31.0,26.0,30.46,NNW,339,0.0,3.0,81,0.00,,,0.00,,2013-03-29 13:13:00,
2013-03-29 09:23:00,33.0,28.0,30.46,NNW,339,0.0,3.0,80,0.00,,,0.00,,2013-03-29 13:23:00,
2013-03-29 09:33:00,34.0,28.0,30.46,WSW,256,3.0,5.0,77,0.00,,,0.00,,2013-03-29 13:33:00,
2013-03-29 09:43:00,34.0,28.0,30.46,WSW,256,3.0,5.0,77,0.00,,,0.00,,2013-03-29 13:43:00,
2013-03-29 09:52:00,36.0,28.0,30.45,West,277,1.0,4.0,73,0.00,,,0.00,,2013-03-29 13:52:00,
2013-03-29 10:03:00,37.0,28.0,30.45,WSW,244,4.0,7.0,70,0.00,,,0.00,,2013-03-29 14:03:00,
2013-03-29 10:12:00,37.0,28.0,30.45,WSW,244,4.0,7.0,70,0.00,,,0.00,,2013-03-29 14:12:00,
2013-03-29 10:22:00,38.0,28.0,30.45,WSW,240,4.0,8.0,67,0.00,,,0.00,,2013-03-29 14:22:00,
2013-03-29 10:33:00,39.0,28.0,30.45,SSW,204,3.0,5.0,64,0.00,,,0.00,,2013-03-29 14:33:00,
2013-03-29 10:42:00,39.0,28.0,30.45,SSW,204,3.0,5.0,64,0.00,,,0.00,,2013-03-29 14:42:00,
2013-03-29 10:52:00,40.0,28.0,30.44,South,188,2.0,6.0,61,0.00,,,0.00,,2013-03-29 14:52:00,
2013-03-29 11:02:00,42.0,27.0,30.44,WSW,251,2.0,9.0,55,0.00,,,0.00,,2013-03-29 15:02:00,
2013-03-29 11:12:00,42.0,27.0,30.44,WSW,251,2.0,9.0,55,0.00,,,0.00,,2013-03-29 15:12:00,
2013-03-29 11:22:00,43.0,26.0,30.44,West,269,4.0,13.0,51,0.00,,,0.00,,2013-03-29 15:22:00,
2013-03-29 11:33:00,44.0,28.0,30.44,West,263,1.0,7.0,52,0.00,,,0.00,,2013-03-29 15:33:00,
2013-03-29 11:43:00,44.0,28.0,30.44,West,263,1.0,7.0,52,0.00,,,0.00,,2013-03-29 15:43:00,
2013-03-29 11:53:00,44.0,27.0,30.44,North,355,2.0,7.0,50,0.00,,,0.00,,2013-03-29 15:53:00,
2013-03-29 12:03:00,45.0,27.0,30.44,WSW,246,2.0,12.0,48,0.00,,,0.00,,2013-03-29 16:03:00,
2013-03-29 12:13:00,45.0,27.0,30.44,WSW,246,2.0,12.0,48,0.00,,,0.00,,2013-03-29 16:13:00,
2013-03-29 12:23:00,45.0,27.0,30.44,WSW,246,2.0,12.0,48,0.00,,,0.00,,2013-03-29 16:23:00,
2013-03-29 12:33:00,45.0,27.0,30.42,WSW,250,6.0,11.0,49,0.00,,,0.00,,2013-03-29 16:33:00,
2013-03-29 12:43:00,45.0,27.0,30.42,WSW,250,6.0,11.0,49,0.00,,,0.00,,2013-03-29 16:43:00,
2013-03-29 12:53:00,46.0,27.0,30.42,West,281,8.0,12.0,47,0.00,,,0.00,,2013-03-29 16:53:00,
2013-03-29 13:03:00,46.0,27.0,30.42,West,281,8.0,12.0,47,0.00,,,0.00,,2013-03-29 17:03:00,
2013-03-29 13:12:00,46.0,27.0,30.42,West,281,8.0,12.0,47,0.00,,,0.00,,2013-03-29 17:12:00,
2013-03-29 13:23:00,47.0,25.0,30.40,WSW,238,7.0,13.0,42,0.00,,,0.00,,2013-03-29 17:23:00,
2013-03-29 13:33:00,47.0,24.0,30.39,North,349,6.0,13.0,40,0.00,,,0.00,,2013-03-29 17:33:00,
2013-03-29 13:43:00,47.0,24.0,30.39,North,349,6.0,13.0,40,0.00,,,0.00,,2013-03-29 17:43:00,
2013-03-29 13:52:00,48.0,27.0,30.38,WNW,286,6.0,16.0,43,0.00,,,0.00,,2013-03-29 17:52:00,
2013-03-29 14:02:00,48.0,25.0,30.37,West,275,8.0,18.0,41,0.00,,,0.00,,2013-03-29 18:02:00,
2013-03-29 14:12:00,48.0,25.0,30.37,West,275,8.0,18.0,41,0.00,,,0.00,,2013-03-29 18:12:00,
2013-03-29 14:23:00,49.0,27.0,30.37,West,277,1.0,16.0,42,0.00,,,0.00,,2013-03-29 18:23:00,
2013-03-29 14:33:00,50.0,27.0,30.36,West,270,4.0,16.0,41,0.00,,,0.00,,2013-03-29 18:33:00,
2013-03-29 14:42:00,50.0,27.0,30.36,West,270,4.0,16.0,41,0.00,,,0.00,,2013-03-29 18:42:00,
2013-03-29 14:52:00,50.0,27.0,30.35,WSW,256,6.0,10.0,40,0.00,,,0.00,,2013-03-29 18:52:00,
2013-03-29 15:03:00,51.0,28.0,30.34,West,271,5.0,14.0,41,0.00,,,0.00,,2013-03-29 19:03:00,
2013-03-29 15:12:00,51.0,26.0,30.34,West,267,6.0,15.0,37,0.00,,,0.00,,2013-03-29 19:12:00,
2013-03-29 15:23:00,51.0,26.0,30.34,West,267,6.0,15.0,37,0.00,,,0.00,,2013-03-29 19:23:00,
2013-03-29 15:33:00,51.0,27.0,30.33,West,281,5.0,15.0,39,0.00,,,0.00,,2013-03-29 19:33:00,
2013-03-29 15:43:00,51.0,27.0,30.33,West,281,5.0,15.0,39,0.00,,,0.00,,2013-03-29 19:43:00,
2013-03-29 15:52:00,50.0,27.0,30.32,NNW,330,8.0,15.0,41,0.00,,,0.00,,2013-03-29 19:52:00,
2013-03-29 16:03:00,52.0,27.0,30.31,NNW,334,5.0,12.0,37,0.00,,,0.00,,2013-03-29 20:03:00,
2013-03-29 16:12:00,52.0,27.0,30.31,NNW,334,5.0,12.0,37,0.00,,,0.00,,2013-03-29 20:12:00,
2013-03-29 16:23:00,52.0,26.0,30.31,WNW,298,6.0,11.0,36,0.00,,,0.00,,2013-03-29 20:23:00,
2013-03-29 16:33:00,51.0,25.0,30.31,WNW,290,6.0,14.0,36,0.00,,,0.00,,2013-03-29 20:33:00,
2013-03-29 16:42:00,51.0,25.0,30.31,WNW,290,6.0,14.0,36,0.00,,,0.00,,2013-03-29 20:42:00,
2013-03-29 16:52:00,51.0,24.0,30.31,NE,36,5.0,14.0,35,0.00,,,0.00,,2013-03-29 20:52:00,
2013-03-29 17:02:00,52.0,26.0,30.30,NW,311,5.0,10.0,36,0.00,,,0.00,,2013-03-29 21:02:00,
2013-03-29 17:12:00,52.0,26.0,30.30,NW,311,5.0,10.0,36,0.00,,,0.00,,2013-03-29 21:12:00,
2013-03-29 17:22:00,51.0,26.0,30.30,West,269,5.0,10.0,37,0.00,,,0.00,,2013-03-29 21:22:00,
2013-03-29 17:33:00,51.0,25.0,30.30,WSW,245,6.0,12.0,36,0.00,,,0.00,,2013-03-29 21:33:00,
2013-03-29 17:43:00,51.0,25.0,30.30,WSW,245,6.0,12.0,36,0.00,,,0.00,,2013-03-29 21:43:00,
2013-03-29 17:53:00,51.0,25.0,30.30,West,270,7.0,12.0,36,0.00,,,0.00,,2013-03-29 21:53:00,
2013-03-29 18:03:00,51.0,27.0,30.30,West,276,5.0,10.0,39,0.00,,,0.00,,2013-03-29 22:03:00,
2013-03-29 18:13:00,51.0,27.0,30.30,West,276,5.0,10.0,39,0.00,,,0.00,,2013-03-29 22:13:00,
2013-03-29 18:23:00,51.0,27.0,30.30,West,276,5.0,10.0,39,0.00,,,0.00,,2013-03-29 22:23:00,
2013-03-29 18:33:00,50.0,26.0,30.31,West,271,4.0,11.0,39,0.00,,,0.00,,2013-03-29 22:33:00,
2013-03-29 18:42:00,50.0,26.0,30.31,West,271,4.0,11.0,39,0.00,,,0.00,,2013-03-29 22:42:00,
2013-03-29 18:54:00,49.0,25.0,30.31,West,267,4.0,9.0,38,0.00,,,0.00,,2013-03-29 22:54:00,
2013-03-29 19:03:00,49.0,25.0,30.31,NNW,333,2.0,9.0,39,0.00,,,0.00,,2013-03-29 23:03:00,
2013-03-29 19:12:00,49.0,25.0,30.31,NNW,333,2.0,9.0,39,0.00,,,0.00,,2013-03-29 23:12:00,
2013-03-29 19:22:00,49.0,25.0,30.32,NW,305,0.0,8.0,39,0.00,,,0.00,,2013-03-29 23:22:00,
2013-03-29 19:32:00,49.0,26.0,30.32,NW,305,0.0,3.0,40,0.00,,,0.00,,2013-03-29 23:32:00,
2013-03-29 19:42:00,49.0,26.0,30.32,NW,305,0.0,3.0,40,0.00,,,0.00,,2013-03-29 23:42:00,
2013-03-29 19:52:00,49.0,26.0,30.32,WNW,282,2.0,6.0,40,0.00,,,0.00,,2013-03-29 23:52:00,
2013-03-29 20:03:00,48.0,25.0,30.32,NW,309,2.0,4.0,41,0.00,,,0.00,,2013-03-30 00:03:00,
2013-03-29 20:12:00,48.0,25.0,30.32,NW,309,2.0,4.0,41,0.00,,,0.00,,2013-03-30 00:12:00,
2013-03-29 20:22:00,47.0,26.0,30.32,NW,308,0.0,5.0,44,0.00,,,0.00,,2013-03-30 00:22:00,
2013-03-29 20:32:00,45.0,26.0,30.33,NW,308,0.0,1.0,47,0.00,,,0.00,,2013-03-30 00:32:00,
2013-03-29 20:43:00,45.0,26.0,30.33,NW,308,0.0,1.0,47,0.00,,,0.00,,2013-03-30 00:43:00,
2013-03-29 20:53:00,43.0,26.0,30.33,NW,308,0.0,2.0,51,0.00,,,0.00,,2013-03-30 00:53:00,
2013-03-29 21:03:00,40.0,27.0,30.34,NW,308,0.0,0.0,59,0.00,,,0.00,,2013-03-30 01:03:00,
2013-03-29 21:13:00,40.0,27.0,30.34,NW,308,0.0,0.0,59,0.00,,,0.00,,2013-03-30 01:13:00,
2013-03-29 21:23:00,38.0,27.0,30.34,NW,308,0.0,0.0,63,0.00,,,0.00,,2013-03-30 01:23:00,
2013-03-29 21:33:00,37.0,27.0,30.34,NW,308,0.0,0.0,68,0.00,,,0.00,,2013-03-30 01:33:00,
2013-03-29 21:43:00,37.0,27.0,30.34,NW,308,0.0,0.0,68,0.00,,,0.00,,2013-03-30 01:43:00,
2013-03-29 21:53:00,36.0,27.0,30.35,NW,308,0.0,0.0,69,0.00,,,0.00,,2013-03-30 01:53:00,
2013-03-29 22:03:00,35.0,27.0,30.35,NW,308,0.0,0.0,72,0.00,,,0.00,,2013-03-30 02:03:00,
2013-03-29 22:12:00,35.0,27.0,30.35,NW,308,0.0,0.0,72,0.00,,,0.00,,2013-03-30 02:12:00,
2013-03-29 22:22:00,34.0,27.0,30.35,NW,308,0.0,0.0,76,0.00,,,0.00,,2013-03-30 02:22:00,
2013-03-29 22:33:00,33.0,27.0,30.36,NW,308,0.0,0.0,78,0.00,,,0.00,,2013-03-30 02:33:00,
2013-03-29 22:43:00,33.0,27.0,30.36,NW,308,0.0,0.0,78,0.00,,,0.00,,2013-03-30 02:43:00,
2013-03-29 22:53:00,35.0,27.0,30.37,WSW,248,5.0,9.0,73,0.00,,,0.00,,2013-03-30 02:53:00,
2013-03-29 23:03:00,36.0,26.0,30.37,WSW,248,0.0,2.0,68,0.00,,,0.00,,2013-03-30 03:03:00,
2013-03-29 23:12:00,36.0,26.0,30.37,WSW,248,0.0,0.0,68,0.00,,,0.00,,2013-03-30 03:12:00,
2013-03-29 23:22:00,36.0,26.0,30.37,WSW,248,0.0,0.0,68,0.00,,,0.00,,2013-03-30 03:22:00,
2013-03-29 23:33:00,35.0,27.0,30.37,WSW,248,0.0,2.0,71,0.00,,,0.00,,2013-03-30 03:33:00,
2013-03-29 23:43:00,35.0,27.0,30.37,WSW,248,0.0,2.0,71,0.00,,,0.00,,2013-03-30 03:43:00,
2013-03-29 23:53:00,34.0,27.0,30.37,WSW,248,0.0,1.0,74,0.00,,,0.00,,2013-03-30 03:53:00,